createdAt,value
2018-12-05T00:02:00.663Z,87.90
2018-12-05T00:04:32.872Z,87.50
2018-12-05T00:07:05.353Z,87.50
2018-12-05T00:09:38.052Z,87.40
2018-12-05T00:12:10.624Z,87.70
2018-12-05T00:14:42.662Z,87.70
2018-12-05T00:17:15.511Z,87.70
2018-12-05T00:19:48.222Z,87.90
2018-12-05T00:22:20.202Z,88.10
2018-12-05T00:24:53.722Z,88.10
2018-12-05T00:27:25.682Z,88.20
2018-12-05T00:29:58.331Z,88.10
2018-12-05T00:32:30.551Z,87.90
2018-12-05T00:35:02.901Z,88.30
2018-12-05T00:37:35.412Z,88.30
2018-12-05T00:40:08.732Z,88.50
2018-12-05T00:42:42.271Z,88.80
2018-12-05T00:45:15.624Z,89.00
2018-12-05T00:47:48.332Z,89.20
2018-12-05T00:50:21.661Z,89.00
2018-12-05T00:52:53.926Z,89.10
2018-12-05T00:55:25.382Z,88.90
2018-12-05T00:57:57.722Z,88.60
2018-12-05T01:00:30.442Z,88.70
2018-12-05T01:03:02.401Z,88.50
2018-12-05T01:05:36.411Z,88.60
2018-12-05T01:08:08.961Z,88.50
2018-12-05T01:10:41.921Z,87.80
2018-12-05T01:13:13.970Z,87.30
2018-12-05T01:15:47.321Z,87.50
2018-12-05T01:18:20.613Z,87.50
2018-12-05T01:20:52.101Z,87.50
2018-12-05T01:23:26.122Z,87.50
2018-12-05T01:25:58.561Z,88.20
2018-12-05T01:28:32.951Z,88.60
2018-12-05T01:31:05.633Z,88.80
2018-12-05T01:33:38.092Z,88.90
2018-12-05T01:36:10.614Z,89.10
2018-12-05T01:38:44.182Z,89.20
2018-12-05T01:41:16.802Z,89.20
2018-12-05T01:43:48.994Z,88.90
2018-12-05T01:46:21.062Z,88.50
2018-12-05T01:48:53.531Z,87.70
2018-12-05T01:51:25.870Z,87.90
2018-12-05T01:53:59.150Z,87.60
2018-12-05T01:56:31.371Z,88.10
2018-12-05T01:59:02.626Z,88.40
2018-12-05T02:01:35.121Z,88.90
2018-12-05T02:04:07.491Z,88.90
2018-12-05T02:06:39.751Z,88.90
2018-12-05T02:09:12.099Z,89.10
2018-12-05T02:11:44.522Z,89.20
2018-12-05T02:14:16.301Z,89.50
2018-12-05T02:16:48.001Z,89.50
2018-12-05T02:19:19.783Z,89.50
2018-12-05T02:21:52.022Z,89.30
2018-12-05T02:24:24.472Z,89.60
2018-12-05T02:26:57.042Z,89.20
2018-12-05T02:29:33.712Z,88.20
2018-12-05T02:32:06.032Z,87.70
2018-12-05T02:34:38.192Z,87.50
2018-12-05T02:37:10.462Z,87.50
2018-12-05T02:39:42.874Z,87.40
2018-12-05T02:42:15.112Z,87.50
2018-12-05T02:44:48.269Z,87.60
2018-12-05T02:47:21.639Z,87.40
2018-12-05T02:49:53.751Z,87.80
2018-12-05T02:52:25.922Z,88.50
2018-12-05T02:54:58.602Z,88.70
2018-12-05T02:57:30.582Z,88.80
2018-12-05T03:00:03.462Z,88.90
2018-12-05T03:02:35.694Z,87.90
2018-12-05T03:05:08.632Z,87.40
2018-12-05T03:07:41.422Z,87.20
2018-12-05T03:10:14.342Z,87.30
2018-12-05T03:12:46.634Z,87.30
2018-12-05T03:15:19.138Z,87.60
2018-12-05T03:17:51.702Z,87.40
2018-12-05T03:20:23.983Z,87.80
2018-12-05T03:22:56.772Z,87.90
2018-12-05T03:25:30.291Z,87.70
2018-12-05T03:28:02.642Z,87.90
2018-12-05T03:30:35.323Z,88.10
2018-12-05T03:33:07.092Z,88.40
2018-12-05T03:35:40.611Z,88.60
2018-12-05T03:38:12.701Z,88.00
2018-12-05T03:40:45.931Z,88.10
2018-12-05T03:43:17.182Z,88.00
2018-12-05T03:45:50.231Z,88.10
2018-12-05T03:48:22.522Z,87.60
2018-12-05T03:50:54.941Z,87.70
2018-12-05T03:53:26.872Z,87.50
2018-12-05T03:55:59.032Z,87.40
2018-12-05T03:58:30.422Z,87.30
2018-12-05T04:01:02.241Z,87.20
2018-12-05T04:03:34.722Z,87.50
2018-12-05T04:06:07.506Z,87.20
2018-12-05T04:08:39.552Z,87.40
2018-12-05T04:11:12.471Z,87.40
2018-12-05T04:13:45.242Z,87.30
2018-12-05T04:16:17.831Z,87.00
2018-12-05T04:18:49.752Z,86.90
2018-12-05T04:21:22.269Z,86.90
2018-12-05T04:23:55.112Z,87.20
2018-12-05T04:26:27.472Z,87.10
2018-12-05T04:28:59.672Z,87.40
2018-12-05T04:31:32.571Z,87.60
2018-12-05T04:34:04.622Z,87.30
2018-12-05T04:36:37.001Z,87.10
2018-12-05T04:39:10.671Z,87.10
2018-12-05T04:41:43.732Z,87.30
2018-12-05T04:44:15.457Z,87.10
2018-12-05T04:46:48.011Z,87.00
2018-12-05T04:49:20.862Z,86.90
2018-12-05T04:51:53.350Z,86.80
2018-12-05T04:54:25.471Z,86.80
2018-12-05T04:56:57.831Z,87.10
2018-12-05T04:59:31.100Z,87.20
2018-12-05T05:02:05.471Z,87.40
2018-12-05T05:04:37.821Z,87.20
2018-12-05T05:07:09.793Z,87.80
2018-12-05T05:09:42.846Z,88.30
2018-12-05T05:12:15.362Z,88.80
2018-12-05T05:14:48.803Z,89.10
2018-12-05T05:17:21.192Z,89.30
2018-12-05T05:19:53.653Z,89.20
2018-12-05T05:22:26.703Z,89.00
2018-12-05T05:24:58.941Z,88.60
2018-12-05T05:27:31.431Z,88.50
2018-12-05T05:30:05.283Z,88.00
2018-12-05T05:32:37.802Z,88.00
2018-12-05T05:35:10.334Z,87.00
2018-12-05T05:37:42.294Z,87.00
2018-12-05T05:40:14.532Z,86.70
2018-12-05T05:42:46.682Z,86.50
2018-12-05T05:45:19.758Z,86.10
2018-12-05T05:47:51.803Z,86.20
2018-12-05T05:50:24.193Z,86.10
2018-12-05T05:52:56.943Z,85.90
2018-12-05T05:55:29.008Z,85.60
2018-12-05T05:58:01.623Z,85.80
2018-12-05T06:00:34.315Z,86.30
2018-12-05T06:03:06.382Z,86.80
2018-12-05T06:05:38.914Z,86.20
2018-12-05T06:08:11.852Z,86.90
2018-12-05T06:10:45.804Z,86.50
2018-12-05T06:13:19.393Z,87.00
2018-12-05T06:15:52.623Z,87.30
2018-12-05T06:18:26.742Z,87.30
2018-12-05T06:20:58.963Z,87.80
2018-12-05T06:23:30.953Z,87.80
2018-12-05T06:26:03.553Z,88.10
2018-12-05T06:28:36.643Z,88.40
2018-12-05T06:31:09.412Z,88.40
2018-12-05T06:33:41.147Z,88.30
2018-12-05T06:36:13.823Z,88.50
2018-12-05T06:38:46.143Z,89.00
2018-12-05T06:41:19.122Z,90.00
2018-12-05T06:43:51.405Z,88.90
2018-12-05T06:46:25.032Z,88.00
2018-12-05T06:48:57.623Z,89.00
2018-12-05T06:51:30.423Z,89.20
2018-12-05T06:54:03.194Z,89.10
2018-12-05T06:56:35.273Z,89.00
2018-12-05T06:59:07.473Z,89.10
2018-12-05T07:01:41.873Z,89.30
2018-12-05T07:04:15.403Z,89.30
2018-12-05T07:06:48.373Z,89.20
2018-12-05T07:09:21.063Z,88.80
2018-12-05T07:11:53.443Z,88.90
2018-12-05T07:14:26.083Z,89.10
2018-12-05T07:16:58.543Z,89.40
2018-12-05T07:19:30.882Z,90.00
2018-12-05T07:22:03.623Z,89.80
2018-12-05T07:24:35.523Z,89.30
2018-12-05T07:27:07.992Z,89.10
2018-12-05T07:29:40.996Z,88.60
2018-12-05T07:32:14.443Z,88.10
2018-12-05T07:34:46.632Z,88.40
2018-12-05T07:37:18.892Z,88.10
2018-12-05T07:39:51.473Z,88.30
2018-12-05T07:42:23.804Z,87.40
2018-12-05T07:44:56.371Z,87.90
2018-12-05T07:47:28.002Z,88.30
2018-12-05T07:50:00.252Z,88.00
2018-12-05T07:52:32.692Z,87.80
2018-12-05T07:55:05.053Z,87.40
2018-12-05T07:57:38.232Z,87.10
2018-12-05T08:00:10.744Z,87.50
2018-12-05T08:02:43.863Z,87.60
2018-12-05T08:05:17.372Z,87.50
2018-12-05T08:07:49.051Z,87.80
2018-12-05T08:10:21.802Z,87.50
2018-12-05T08:12:54.462Z,86.70
2018-12-05T08:15:26.383Z,86.60
2018-12-05T08:17:59.357Z,86.60
2018-12-05T08:20:29.902Z,86.90
2018-12-05T08:23:02.501Z,87.50
2018-12-05T08:25:34.473Z,86.90
2018-12-05T08:28:07.382Z,87.00
2018-12-05T08:30:39.551Z,86.70
2018-12-05T08:33:13.863Z,87.20
2018-12-05T08:35:46.072Z,87.00
2018-12-05T08:38:17.582Z,87.60
2018-12-05T08:40:50.781Z,87.10
2018-12-05T08:43:24.701Z,87.00
2018-12-05T08:45:57.312Z,87.40
2018-12-05T08:48:30.194Z,86.70
2018-12-05T08:51:03.377Z,87.10
2018-12-05T08:53:35.382Z,86.90
2018-12-05T08:56:08.061Z,86.80
2018-12-05T08:58:41.301Z,86.80
2018-12-05T09:01:14.421Z,87.20
2018-12-05T09:03:47.451Z,86.90
2018-12-05T09:06:19.641Z,87.00
2018-12-05T09:08:52.081Z,87.20
2018-12-05T09:11:24.211Z,87.40
2018-12-05T09:13:57.141Z,87.40
2018-12-05T09:16:30.171Z,87.10
2018-12-05T09:19:02.352Z,87.30
2018-12-05T09:21:35.951Z,87.50
2018-12-05T09:24:08.842Z,86.60
2018-12-05T09:26:42.011Z,86.60
2018-12-05T09:29:13.811Z,87.00
2018-12-05T09:31:46.701Z,86.80
2018-12-05T09:34:19.174Z,86.40
2018-12-05T09:36:51.477Z,86.30
2018-12-05T09:39:23.364Z,86.00
2018-12-05T09:41:56.211Z,86.10
2018-12-05T09:44:28.942Z,86.40
2018-12-05T09:47:01.671Z,87.20
2018-12-05T09:49:33.871Z,85.90
2018-12-05T09:52:06.172Z,86.40
2018-12-05T09:54:38.822Z,85.90
2018-12-05T09:57:09.592Z,86.00
2018-12-05T09:59:41.902Z,85.60
2018-12-05T10:02:14.492Z,85.40
2018-12-05T10:04:47.301Z,85.70
2018-12-05T10:07:20.562Z,85.50
2018-12-05T10:09:55.183Z,85.60
2018-12-05T10:12:28.413Z,85.40
2018-12-05T10:15:00.262Z,85.00
2018-12-05T10:17:33.231Z,85.20
2018-12-05T10:20:06.191Z,85.20
2018-12-05T10:22:38.261Z,85.60
2018-12-05T10:25:11.530Z,85.30
2018-12-05T10:27:45.826Z,84.20
2018-12-05T10:30:19.691Z,84.10
2018-12-05T10:32:51.821Z,83.70
2018-12-05T10:35:24.680Z,83.90
2018-12-05T10:37:57.522Z,84.70
2018-12-05T10:40:29.361Z,85.00
2018-12-05T10:43:02.122Z,86.00
2018-12-05T10:45:35.149Z,85.70
2018-12-05T10:48:08.070Z,85.00
2018-12-05T10:50:40.281Z,84.00
2018-12-05T10:53:13.342Z,84.70
2018-12-05T10:55:45.900Z,85.00
2018-12-05T10:58:18.121Z,84.30
2018-12-05T11:00:54.671Z,82.10
2018-12-05T11:03:33.651Z,79.80
2018-12-05T11:06:11.171Z,79.40
2018-12-05T11:08:48.181Z,79.20
2018-12-05T11:11:25.080Z,78.40
2018-12-05T11:14:03.849Z,77.50
2018-12-05T11:16:42.640Z,77.90
2018-12-05T11:19:19.980Z,77.20
2018-12-05T11:24:01.341Z,77.40
2018-12-05T11:26:35.899Z,76.90
2018-12-05T11:29:08.353Z,76.90
2018-12-05T11:31:41.239Z,76.40
2018-12-05T11:34:14.730Z,76.20
2018-12-05T11:36:46.531Z,76.30
2018-12-05T11:39:19.849Z,76.10
2018-12-05T11:41:52.781Z,75.80
2018-12-05T11:44:26.873Z,75.50
2018-12-05T11:47:01.210Z,75.80
2018-12-05T11:49:33.171Z,75.30
2018-12-05T11:52:06.701Z,76.00
2018-12-05T11:54:39.570Z,75.50
2018-12-05T11:57:12.716Z,75.60
2018-12-05T11:59:44.871Z,76.20
2018-12-05T12:02:22.306Z,75.90
2018-12-05T12:04:53.776Z,76.00
2018-12-05T12:07:27.442Z,75.70
2018-12-05T12:09:59.490Z,76.10
2018-12-05T12:12:36.841Z,75.50
2018-12-05T12:15:09.702Z,75.30
2018-12-05T12:17:42.551Z,75.50
2018-12-05T12:20:15.711Z,75.40
2018-12-05T12:22:47.740Z,75.70
2018-12-05T12:25:20.138Z,76.90
2018-12-05T12:27:53.870Z,77.90
2018-12-05T12:30:25.890Z,77.20
2018-12-05T12:32:58.971Z,79.10
2018-12-05T12:35:31.144Z,80.00
2018-12-05T12:38:03.783Z,80.40
2018-12-05T12:40:36.172Z,80.60
2018-12-05T12:43:08.280Z,80.90
2018-12-05T12:45:40.822Z,81.40
2018-12-05T12:48:12.819Z,81.20
2018-12-05T12:50:46.330Z,81.50
2018-12-05T12:53:18.191Z,81.90
2018-12-05T12:55:50.911Z,82.00
2018-12-05T12:58:22.670Z,82.30
2018-12-05T13:00:55.200Z,83.00
2018-12-05T13:03:27.882Z,83.00
2018-12-05T13:06:00.030Z,83.50
2018-12-05T13:08:33.311Z,82.90
2018-12-05T13:11:05.462Z,83.40
2018-12-05T13:13:38.445Z,83.40
2018-12-05T13:16:11.330Z,84.10
2018-12-05T13:18:43.671Z,83.10
2018-12-05T13:21:16.211Z,82.60
2018-12-05T13:23:51.054Z,82.50
2018-12-05T13:26:25.548Z,82.70
2018-12-05T13:28:58.900Z,83.30
2018-12-05T13:31:31.668Z,83.30
2018-12-05T13:34:03.744Z,83.30
2018-12-05T13:36:36.422Z,83.40
2018-12-05T13:39:11.804Z,83.40
2018-12-05T13:41:45.011Z,82.80
2018-12-05T13:44:17.525Z,83.20
2018-12-05T13:46:51.803Z,83.00
2018-12-05T13:49:24.897Z,83.00
2018-12-05T13:51:57.162Z,82.70
2018-12-05T13:54:29.633Z,82.90
2018-12-05T13:57:02.879Z,83.00
2018-12-05T13:59:35.441Z,82.80
2018-12-05T14:02:07.723Z,83.10
2018-12-05T14:04:40.842Z,83.60
2018-12-05T14:07:13.803Z,83.80
2018-12-05T14:09:45.811Z,84.00
2018-12-05T14:12:23.083Z,83.80
2018-12-05T14:14:57.161Z,83.80
2018-12-05T14:17:31.112Z,83.90
2018-12-05T14:20:04.431Z,83.40
2018-12-05T14:22:36.822Z,83.70
2018-12-05T14:25:10.723Z,83.80
2018-12-05T14:27:43.634Z,83.80
2018-12-05T14:30:15.512Z,83.90
2018-12-05T14:32:48.802Z,83.80
2018-12-05T14:35:22.162Z,83.90
2018-12-05T14:37:55.331Z,84.00
2018-12-05T14:40:28.001Z,83.90
2018-12-05T14:43:01.551Z,84.00
2018-12-05T14:45:34.591Z,84.10
2018-12-05T14:48:07.433Z,84.10
2018-12-05T14:50:39.351Z,84.20
2018-12-05T14:53:12.272Z,84.10
2018-12-05T14:55:46.354Z,84.30
2018-12-05T14:58:18.221Z,84.30
2018-12-05T15:00:51.203Z,84.50
2018-12-05T15:03:24.463Z,84.40
2018-12-05T15:05:56.962Z,84.40
2018-12-05T15:08:30.242Z,84.40
2018-12-05T15:11:01.821Z,84.50
2018-12-05T15:13:34.921Z,84.30
2018-12-05T15:16:08.112Z,84.60
2018-12-05T15:18:40.381Z,84.60
2018-12-05T15:21:13.174Z,84.90
2018-12-05T15:23:46.233Z,84.80
2018-12-05T15:26:18.132Z,84.70
2018-12-05T15:28:51.121Z,84.70
2018-12-05T15:31:24.562Z,84.50
2018-12-05T15:33:56.462Z,84.70
2018-12-05T15:36:29.162Z,84.80
2018-12-05T15:39:01.511Z,84.70
2018-12-05T15:41:34.102Z,84.80
2018-12-05T15:44:07.312Z,85.00
2018-12-05T15:46:39.002Z,84.80
2018-12-05T15:49:11.702Z,84.90
2018-12-05T15:51:44.430Z,85.00
2018-12-05T15:54:17.162Z,85.10
2018-12-05T15:56:50.344Z,84.80
2018-12-05T15:59:23.423Z,85.20
2018-12-05T16:01:55.631Z,85.00
2018-12-05T16:04:28.583Z,85.00
2018-12-05T16:07:01.966Z,85.00
2018-12-05T16:09:34.372Z,84.80
2018-12-05T16:12:07.751Z,85.10
2018-12-05T16:14:41.491Z,85.00
2018-12-05T16:17:13.472Z,85.30
2018-12-05T16:19:46.733Z,85.20
2018-12-05T16:22:19.991Z,85.30
2018-12-05T16:24:52.442Z,85.40
2018-12-05T16:27:24.982Z,85.30
2018-12-05T16:29:57.871Z,85.40
2018-12-05T16:32:30.812Z,85.40
2018-12-05T16:35:03.041Z,85.50
2018-12-05T16:37:36.028Z,85.50
2018-12-05T16:40:09.022Z,85.40
2018-12-05T16:42:41.782Z,85.60
2018-12-05T16:45:14.672Z,85.40
2018-12-05T16:47:47.142Z,85.50
2018-12-05T16:50:20.002Z,86.00
2018-12-05T16:52:53.333Z,85.90
2018-12-05T16:55:25.672Z,85.90
2018-12-05T16:57:58.534Z,86.10
2018-12-05T17:00:32.286Z,86.00
2018-12-05T17:03:05.542Z,86.00
2018-12-05T17:05:37.822Z,86.10
2018-12-05T17:08:10.442Z,86.00
2018-12-05T17:10:43.132Z,85.80
2018-12-05T17:13:16.142Z,86.30
2018-12-05T17:15:48.558Z,86.30
2018-12-05T17:18:20.892Z,86.70
2018-12-05T17:20:53.844Z,87.10
2018-12-05T17:23:26.606Z,87.20
2018-12-05T17:25:59.283Z,87.30
2018-12-05T17:28:31.782Z,87.10
2018-12-05T17:31:05.032Z,86.90
2018-12-05T17:33:38.462Z,86.90
2018-12-05T17:36:10.832Z,86.90
2018-12-05T17:38:43.203Z,86.90
2018-12-05T17:41:16.541Z,86.80
2018-12-05T17:43:49.393Z,86.70
2018-12-05T17:46:21.772Z,86.50
2018-12-05T17:48:54.306Z,86.30
2018-12-05T17:51:26.592Z,86.50
2018-12-05T17:53:59.553Z,86.50
2018-12-05T17:56:32.002Z,86.60
2018-12-05T17:59:05.853Z,86.60
2018-12-05T18:01:38.323Z,86.60
2018-12-05T18:04:11.985Z,86.50
2018-12-05T18:06:44.566Z,86.40
2018-12-05T18:09:17.582Z,86.40
2018-12-05T18:11:50.963Z,86.60
2018-12-05T18:14:24.631Z,86.60
2018-12-05T18:16:57.032Z,86.70
2018-12-05T18:19:29.933Z,87.50
2018-12-05T18:22:02.613Z,86.60
2018-12-05T18:24:35.443Z,86.40
2018-12-05T18:27:08.072Z,86.30
2018-12-05T18:29:40.893Z,86.40
2018-12-05T18:32:14.282Z,86.50
2018-12-05T18:34:46.482Z,86.50
2018-12-05T18:37:19.123Z,86.40
2018-12-05T18:39:52.314Z,86.40
2018-12-05T18:42:24.763Z,86.20
2018-12-05T18:44:57.803Z,86.00
2018-12-05T18:47:30.301Z,86.20
2018-12-05T18:50:02.405Z,86.40
2018-12-05T18:52:35.214Z,86.20
2018-12-05T18:55:08.553Z,86.40
2018-12-05T18:57:41.792Z,86.40
2018-12-05T19:00:15.251Z,86.50
2018-12-05T19:02:47.394Z,86.50
2018-12-05T19:05:20.201Z,86.20
2018-12-05T19:07:53.001Z,86.30
2018-12-05T19:10:27.261Z,86.20
2018-12-05T19:13:00.031Z,86.20
2018-12-05T19:15:32.791Z,86.30
2018-12-05T19:18:05.404Z,86.40
2018-12-05T19:20:38.521Z,86.20
2018-12-05T19:23:11.151Z,87.00
2018-12-05T19:25:43.412Z,86.40
2018-12-05T19:28:16.221Z,86.50
2018-12-05T19:30:49.394Z,86.40
2018-12-05T19:33:21.632Z,86.30
2018-12-05T19:35:54.502Z,86.30
2018-12-05T19:38:27.092Z,86.20
2018-12-05T19:40:59.589Z,86.30
2018-12-05T19:43:31.994Z,86.10
2018-12-05T19:46:04.712Z,86.20
2018-12-05T19:48:37.651Z,86.00
2018-12-05T19:51:10.241Z,86.10
2018-12-05T19:53:42.492Z,85.90
2018-12-05T19:56:15.592Z,86.00
2018-12-05T19:58:47.722Z,86.00
2018-12-05T20:01:20.323Z,86.00
2018-12-05T20:03:53.031Z,86.10
2018-12-05T20:06:26.452Z,85.70
2018-12-05T20:08:58.752Z,85.90
2018-12-05T20:11:31.760Z,86.00
2018-12-05T20:14:04.673Z,86.10
2018-12-05T20:16:37.321Z,86.00
2018-12-05T20:19:09.912Z,86.00
2018-12-05T20:21:43.281Z,85.90
2018-12-05T20:24:15.522Z,85.80
2018-12-05T20:26:48.045Z,85.60
2018-12-05T20:29:20.870Z,85.80
2018-12-05T20:31:53.971Z,86.10
2018-12-05T20:34:26.841Z,86.10
2018-12-05T20:36:59.812Z,85.60
2018-12-05T20:39:33.571Z,86.10
2018-12-05T20:42:07.762Z,86.30
2018-12-05T20:44:40.532Z,86.40
2018-12-05T20:47:14.937Z,86.40
2018-12-05T20:49:47.981Z,86.30
2018-12-05T20:52:20.801Z,86.30
2018-12-05T20:54:54.112Z,86.10
2018-12-05T20:57:26.722Z,86.60
2018-12-05T20:59:59.812Z,86.20
2018-12-05T21:02:31.492Z,86.10
2018-12-05T21:05:04.111Z,86.10
2018-12-05T21:07:36.952Z,85.90
2018-12-05T21:10:10.112Z,86.20
2018-12-05T21:12:42.192Z,86.40
2018-12-05T21:15:15.002Z,86.40
2018-12-05T21:17:48.102Z,86.40
2018-12-05T21:20:20.401Z,86.50
2018-12-05T21:22:53.172Z,86.50
2018-12-05T21:25:26.692Z,86.80
2018-12-05T21:27:59.163Z,86.70
2018-12-05T21:30:32.213Z,86.90
2018-12-05T21:33:05.182Z,86.80
2018-12-05T21:35:38.841Z,87.00
2018-12-05T21:38:12.064Z,86.90
2018-12-05T21:40:44.874Z,86.90
2018-12-05T21:43:17.472Z,86.90
2018-12-05T21:45:50.065Z,86.90
2018-12-05T21:48:22.977Z,86.70
2018-12-05T21:50:56.193Z,86.40
2018-12-05T21:53:29.042Z,86.60
2018-12-05T21:56:01.981Z,86.70
2018-12-05T21:58:34.821Z,86.70
2018-12-05T22:01:07.873Z,87.50
2018-12-05T22:03:41.092Z,86.50
2018-12-05T22:06:13.954Z,86.90
2018-12-05T22:08:46.255Z,87.30
2018-12-05T22:11:19.404Z,87.60
2018-12-05T22:13:51.702Z,87.60
2018-12-05T22:16:24.542Z,87.80
2018-12-05T22:18:57.472Z,87.60
2018-12-05T22:21:30.881Z,87.60
2018-12-05T22:24:04.282Z,87.50
2018-12-05T22:26:36.872Z,87.80
2018-12-05T22:29:09.152Z,87.80
2018-12-05T22:31:42.532Z,87.70
2018-12-05T22:34:14.861Z,87.80
2018-12-05T22:36:47.533Z,87.70
2018-12-05T22:39:19.412Z,88.00
2018-12-05T22:41:51.801Z,88.40
2018-12-05T22:44:24.102Z,88.10
2018-12-05T22:46:57.281Z,87.80
2018-12-05T22:49:29.113Z,88.30
2018-12-05T22:52:01.922Z,88.40
2018-12-05T22:54:34.692Z,87.90
2018-12-05T22:57:23.253Z,89.10
2018-12-05T22:59:56.141Z,88.30
2018-12-05T23:02:29.312Z,88.30
2018-12-05T23:05:02.452Z,88.60
2018-12-05T23:07:35.202Z,88.80
2018-12-05T23:10:08.812Z,89.00
2018-12-05T23:12:41.972Z,88.80
2018-12-05T23:15:14.942Z,88.60
2018-12-05T23:17:48.812Z,88.20
2018-12-05T23:20:20.823Z,88.10
2018-12-05T23:22:54.645Z,88.20
2018-12-05T23:25:26.803Z,88.60
2018-12-05T23:27:59.942Z,88.50
2018-12-05T23:30:33.061Z,88.60
2018-12-05T23:33:05.403Z,88.60
2018-12-05T23:35:38.183Z,88.60
2018-12-05T23:38:11.081Z,88.70
2018-12-05T23:40:42.981Z,88.10
2018-12-05T23:43:15.863Z,88.50
2018-12-05T23:45:49.562Z,88.30
2018-12-05T23:48:23.898Z,88.20
2018-12-05T23:50:56.963Z,88.60
2018-12-05T23:53:30.016Z,88.40
2018-12-05T23:56:03.852Z,88.60
2018-12-05T23:58:36.822Z,88.50
